Time;durP1;ratioP1;P1;durP2;ratioP2;P2;SDS_P1;SDS_P2;PMS_P1;PMS_P2;Temp;Humidity;BMP_temperature;BMP_pressure;BME280_temperature;BME280_humidity;BME280_pressure;Samples;Min_cycle;Max_cycle;Signal;HPM_P1;HPM_P2
2021/08/28 00:00:57;;;;;;;9.60;5.93;;;;;;;;;;4966790;28;20358;-71
2021/08/28 00:03:23;;;;;;;8.23;5.55;;;;;;;;;;4958595;28;20034;-70
2021/08/28 00:05:50;;;;;;;9.23;5.30;;;;;;;;;;4974834;28;20058;-72
2021/08/28 00:08:16;;;;;;;6.55;5.60;;;;;;;;;;4970426;28;20523;-72
2021/08/28 00:10:42;;;;;;;8.02;5.70;;;;;;;;;;4968676;28;20045;-72
2021/08/28 00:13:08;;;;;;;6.90;6.20;;;;;;;;;;4971748;28;20043;-72
2021/08/28 00:15:34;;;;;;;8.90;5.90;;;;;;;;;;4971845;28;20046;-72
2021/08/28 00:18:00;;;;;;;7.70;5.43;;;;;;;;;;4966280;28;20030;-72
2021/08/28 00:20:27;;;;;;;8.52;5.78;;;;;;;;;;4971284;28;20058;-71
2021/08/28 00:22:53;;;;;;;8.25;6.20;;;;;;;;;;4970212;28;20105;-71
2021/08/28 00:25:19;;;;;;;7.10;5.30;;;;;;;;;;4968992;28;20081;-72
2021/08/28 00:27:46;;;;;;;8.38;6.07;;;;;;;;;;4981173;28;20019;-71
2021/08/28 00:30:16;;;;;;;7.68;6.05;;;;;;;;;;4963366;28;20380;-65
2021/08/28 00:32:43;;;;;;;6.18;5.45;;;;;;;;;;4958158;28;20039;-68
2021/08/28 00:35:09;;;;;;;7.00;6.05;;;;;;;;;;4969426;28;20034;-71
2021/08/28 00:37:35;;;;;;;9.95;5.72;;;;;;;;;;4973284;28;20026;-74
2021/08/28 00:40:03;;;;;;;8.82;5.90;;;;;;;;;;4973082;28;20023;-70
2021/08/28 00:42:29;;;;;;;10.25;6.90;;;;;;;;;;4985099;28;20043;-72
2021/08/28 00:44:55;;;;;;;7.45;5.85;;;;;;;;;;4965439;28;20437;-70
2021/08/28 00:47:24;;;;;;;8.48;5.95;;;;;;;;;;4969703;28;20038;-72
2021/08/28 00:49:50;;;;;;;8.00;6.22;;;;;;;;;;4972917;28;20015;-71
2021/08/28 00:52:17;;;;;;;7.78;6.38;;;;;;;;;;4972640;28;20042;-71
2021/08/28 00:54:43;;;;;;;8.43;6.25;;;;;;;;;;4973180;28;20030;-70
2021/08/28 00:57:12;;;;;;;8.82;6.57;;;;;;;;;;4967179;28;20027;-71
2021/08/28 00:59:39;;;;;;;8.18;6.55;;;;;;;;;;4972449;28;20031;-72
2021/08/28 01:02:06;;;;;;;8.55;6.78;;;;;;;;;;4970696;28;20088;-71
2021/08/28 01:04:38;;;;;;;8.38;6.57;;;;;;;;;;4956751;28;20031;-71
2021/08/28 01:07:08;;;;;;;8.82;5.40;;;;;;;;;;4972083;28;20027;-70
2021/08/28 01:09:38;;;;;;;7.13;6.05;;;;;;;;;;4972262;28;20038;-72
2021/08/28 01:12:09;;;;;;;7.25;5.68;;;;;;;;;;4972697;28;20039;-70
2021/08/28 01:14:39;;;;;;;7.97;5.97;;;;;;;;;;4973192;28;20078;-64
2021/08/28 01:17:08;;;;;;;6.82;5.75;;;;;;;;;;4970281;28;20023;-71
2021/08/28 01:19:39;;;;;;;8.52;5.68;;;;;;;;;;4966494;28;20124;-72
2021/08/28 01:22:09;;;;;;;7.10;6.00;;;;;;;;;;4972427;28;20054;-72
2021/08/28 01:24:37;;;;;;;6.57;5.85;;;;;;;;;;4971887;28;20027;-71
2021/08/28 01:27:22;;;;;;;7.80;6.18;;;;;;;;;;4972367;28;20031;-71
2021/08/28 01:29:49;;;;;;;10.30;6.00;;;;;;;;;;4970228;28;20043;-66
2021/08/28 01:32:18;;;;;;;6.63;5.93;;;;;;;;;;4970282;28;20027;-62
2021/08/28 01:34:46;;;;;;;14.40;6.63;;;;;;;;;;4975596;28;20069;-71
2021/08/28 01:37:12;;;;;;;9.10;6.43;;;;;;;;;;4974780;28;20023;-70
2021/08/28 01:39:39;;;;;;;8.85;6.20;;;;;;;;;;4975853;28;20035;-70
2021/08/28 01:42:06;;;;;;;8.48;5.93;;;;;;;;;;4978343;28;20094;-68
2021/08/28 01:44:32;;;;;;;8.45;6.20;;;;;;;;;;4976169;28;20918;-70
2021/08/28 01:46:59;;;;;;;9.98;6.20;;;;;;;;;;4971503;28;20560;-70
2021/08/28 01:49:25;;;;;;;9.73;6.22;;;;;;;;;;4974384;28;20066;-68
2021/08/28 01:51:52;;;;;;;9.40;6.30;;;;;;;;;;4966855;28;20410;-71
2021/08/28 01:54:18;;;;;;;8.35;6.40;;;;;;;;;;4971844;28;20434;-72
2021/08/28 01:56:44;;;;;;;9.40;6.88;;;;;;;;;;4973759;28;20097;-70
2021/08/28 01:59:10;;;;;;;10.40;7.47;;;;;;;;;;4975747;28;20035;-71
2021/08/28 02:01:38;;;;;;;8.75;7.20;;;;;;;;;;4974253;28;20027;-72
2021/08/28 02:04:04;;;;;;;10.90;7.00;;;;;;;;;;4983725;28;20033;-69
2021/08/28 02:06:38;;;;;;;8.98;7.10;;;;;;;;;;4972013;28;20060;-71
2021/08/28 02:09:22;;;;;;;9.90;7.20;;;;;;;;;;4970940;28;20027;-68
2021/08/28 02:11:50;;;;;;;8.30;6.57;;;;;;;;;;4970746;28;20051;-71
2021/08/28 02:14:24;;;;;;;8.57;6.63;;;;;;;;;;4974197;28;20030;-71
2021/08/28 02:16:50;;;;;;;7.03;6.22;;;;;;;;;;4961693;28;20449;-67
2021/08/28 02:19:31;;;;;;;10.30;6.30;;;;;;;;;;4964288;28;20027;-69
2021/08/28 02:21:59;;;;;;;7.20;6.45;;;;;;;;;;4962304;28;20057;-71
2021/08/28 02:24:29;;;;;;;10.25;7.18;;;;;;;;;;4975145;28;20034;-72
2021/08/28 02:27:06;;;;;;;12.75;7.20;;;;;;;;;;4974515;28;20031;-71
2021/08/28 02:29:36;;;;;;;7.57;6.78;;;;;;;;;;4976880;28;20022;-71
2021/08/28 02:32:03;;;;;;;7.97;6.72;;;;;;;;;;4967679;28;20110;-70
2021/08/28 02:34:30;;;;;;;8.57;6.60;;;;;;;;;;4974237;28;20434;-71
2021/08/28 02:36:56;;;;;;;9.80;6.80;;;;;;;;;;4974353;28;20516;-71
2021/08/28 02:39:23;;;;;;;7.50;6.60;;;;;;;;;;4973035;28;20269;-72
2021/08/28 02:41:50;;;;;;;8.20;7.18;;;;;;;;;;4975145;28;20019;-71
2021/08/28 02:44:16;;;;;;;8.38;6.70;;;;;;;;;;4962050;28;20045;-71
2021/08/28 02:46:43;;;;;;;7.65;6.38;;;;;;;;;;4962437;28;20031;-71
2021/08/28 02:49:10;;;;;;;8.50;6.50;;;;;;;;;;4961976;28;20029;-72
2021/08/28 02:51:37;;;;;;;9.60;6.72;;;;;;;;;;4973349;28;20512;-61
2021/08/28 02:54:04;;;;;;;8.27;6.28;;;;;;;;;;4968943;28;20047;-72
2021/08/28 02:56:31;;;;;;;7.22;6.13;;;;;;;;;;4974486;28;20019;-71
2021/08/28 02:58:58;;;;;;;7.88;5.97;;;;;;;;;;4964776;28;20031;-66
2021/08/28 03:01:26;;;;;;;8.40;6.55;;;;;;;;;;4972527;28;20027;-62
2021/08/28 03:03:53;;;;;;;12.35;7.82;;;;;;;;;;4969995;28;20039;-71
2021/08/28 03:06:19;;;;;;;8.65;6.53;;;;;;;;;;4970973;28;20105;-72
2021/08/28 03:08:45;;;;;;;8.98;7.03;;;;;;;;;;4972583;28;20109;-72
2021/08/28 03:11:12;;;;;;;9.65;7.25;;;;;;;;;;4968354;28;20063;-70
2021/08/28 03:13:38;;;;;;;11.27;7.45;;;;;;;;;;4968817;28;20038;-68
2021/08/28 03:16:05;;;;;;;14.07;7.88;;;;;;;;;;4964494;28;20058;-70
2021/08/28 03:18:35;;;;;;;10.07;7.60;;;;;;;;;;4971134;28;20034;-71
2021/08/28 03:21:01;;;;;;;10.07;7.35;;;;;;;;;;4969586;28;20043;-71
2021/08/28 03:23:29;;;;;;;10.45;8.48;;;;;;;;;;4968839;28;20374;-72
2021/08/28 03:25:55;;;;;;;10.95;7.90;;;;;;;;;;4969715;28;20617;-68
2021/08/28 03:28:21;;;;;;;9.65;7.22;;;;;;;;;;4973752;28;20392;-69
2021/08/28 03:30:49;;;;;;;9.05;7.43;;;;;;;;;;4973811;28;20106;-71
2021/08/28 03:33:18;;;;;;;12.35;6.75;;;;;;;;;;4973373;28;20159;-71
2021/08/28 03:35:49;;;;;;;9.15;7.35;;;;;;;;;;4972888;28;20500;-63
2021/08/28 03:38:15;;;;;;;10.13;7.78;;;;;;;;;;4973912;28;20030;-72
2021/08/28 03:40:42;;;;;;;11.07;7.90;;;;;;;;;;4972525;28;20027;-72
2021/08/28 03:43:11;;;;;;;12.48;8.20;;;;;;;;;;4973605;28;20030;-71
2021/08/28 03:45:37;;;;;;;10.40;7.80;;;;;;;;;;4973464;28;20496;-69
2021/08/28 03:48:26;;;;;;;9.77;7.50;;;;;;;;;;4979208;28;20039;-72
2021/08/28 03:50:58;;;;;;;10.93;8.17;;;;;;;;;;4954496;28;20176;-69
2021/08/28 03:53:24;;;;;;;11.18;7.25;;;;;;;;;;4972771;28;20042;-70
2021/08/28 03:55:50;;;;;;;9.13;7.25;;;;;;;;;;4973010;28;20027;-64
2021/08/28 03:58:16;;;;;;;10.10;7.63;;;;;;;;;;4962298;28;20042;-71
2021/08/28 04:00:42;;;;;;;12.90;8.38;;;;;;;;;;4974263;28;20030;-70
2021/08/28 04:03:19;;;;;;;10.48;8.32;;;;;;;;;;4976118;28;20098;-71
2021/08/28 04:05:47;;;;;;;12.27;8.07;;;;;;;;;;4970493;28;20036;-72
2021/08/28 04:08:13;;;;;;;10.40;7.40;;;;;;;;;;4970222;28;20070;-71
2021/08/28 04:10:39;;;;;;;9.88;8.23;;;;;;;;;;4970916;28;20038;-69
2021/08/28 04:13:05;;;;;;;10.45;7.95;;;;;;;;;;4967073;28;20043;-69
2021/08/28 04:15:31;;;;;;;11.88;7.93;;;;;;;;;;4963932;28;20158;-72
2021/08/28 04:17:58;;;;;;;12.38;8.48;;;;;;;;;;4965596;28;20023;-72
2021/08/28 04:20:24;;;;;;;13.75;8.80;;;;;;;;;;4972484;28;20038;-71
2021/08/28 04:22:50;;;;;;;10.02;7.78;;;;;;;;;;4973206;28;20047;-71
2021/08/28 04:25:16;;;;;;;11.10;7.70;;;;;;;;;;4966702;28;20031;-72
2021/08/28 04:27:42;;;;;;;9.77;7.93;;;;;;;;;;4972580;28;20029;-71
2021/08/28 04:30:08;;;;;;;13.40;8.52;;;;;;;;;;4972315;28;20058;-70
2021/08/28 04:32:35;;;;;;;10.30;8.15;;;;;;;;;;4973030;28;20098;-70
2021/08/28 04:35:03;;;;;;;11.98;8.88;;;;;;;;;;4970389;28;20090;-70
2021/08/28 04:37:29;;;;;;;11.63;7.80;;;;;;;;;;4971878;28;20843;-71
2021/08/28 04:39:55;;;;;;;12.65;8.27;;;;;;;;;;4970306;28;20092;-72
2021/08/28 04:42:21;;;;;;;10.35;7.90;;;;;;;;;;4976737;28;21024;-63
2021/08/28 04:44:47;;;;;;;12.65;7.32;;;;;;;;;;4969893;28;20449;-70
2021/08/28 04:47:13;;;;;;;9.85;7.57;;;;;;;;;;4971565;28;20034;-72
2021/08/28 04:49:39;;;;;;;11.88;7.88;;;;;;;;;;4966205;28;20019;-70
2021/08/28 04:52:06;;;;;;;13.68;7.78;;;;;;;;;;4948928;28;20078;-68
2021/08/28 04:54:32;;;;;;;10.07;8.07;;;;;;;;;;4971213;28;20369;-70
2021/08/28 04:56:59;;;;;;;12.73;8.93;;;;;;;;;;4962958;28;20054;-61
2021/08/28 04:59:26;;;;;;;11.60;8.65;;;;;;;;;;4965192;28;20477;-63
2021/08/28 05:01:53;;;;;;;11.73;8.13;;;;;;;;;;4964414;28;20027;-69
2021/08/28 05:04:19;;;;;;;13.52;8.40;;;;;;;;;;4972457;28;20102;-72
2021/08/28 05:06:45;;;;;;;16.13;8.75;;;;;;;;;;4971941;28;20075;-68
2021/08/28 05:09:11;;;;;;;11.23;8.10;;;;;;;;;;4970913;28;20024;-66
2021/08/28 05:11:38;;;;;;;10.77;8.38;;;;;;;;;;4974673;28;20377;-75
2021/08/28 05:14:04;;;;;;;11.77;8.68;;;;;;;;;;4976761;28;20042;-69
2021/08/28 05:16:31;;;;;;;9.95;8.57;;;;;;;;;;4975737;28;20027;-69
2021/08/28 05:18:59;;;;;;;14.65;9.68;;;;;;;;;;4970042;28;20060;-72
2021/08/28 05:21:28;;;;;;;10.57;9.10;;;;;;;;;;4969612;28;20055;-63
2021/08/28 05:23:54;;;;;;;12.32;8.85;;;;;;;;;;4972749;28;20030;-74
2021/08/28 05:26:20;;;;;;;11.50;8.65;;;;;;;;;;4975208;28;20101;-71
2021/08/28 05:28:46;;;;;;;11.02;8.75;;;;;;;;;;4976081;28;20027;-62
2021/08/28 05:31:13;;;;;;;12.70;9.20;;;;;;;;;;4984193;28;20038;-68
2021/08/28 05:33:41;;;;;;;17.40;10.15;;;;;;;;;;4990851;28;20081;-68
2021/08/28 05:36:07;;;;;;;10.73;8.60;;;;;;;;;;4971579;28;20489;-67
2021/08/28 05:38:34;;;;;;;12.63;8.43;;;;;;;;;;4973844;28;20031;-72
2021/08/28 05:41:00;;;;;;;17.35;8.93;;;;;;;;;;4975947;28;20019;-71
2021/08/28 05:43:26;;;;;;;10.10;8.05;;;;;;;;;;4971268;28;20142;-64
2021/08/28 05:45:52;;;;;;;11.25;8.63;;;;;;;;;;4975246;28;20102;-69
2021/08/28 05:48:18;;;;;;;10.63;9.10;;;;;;;;;;4960877;28;20091;-72
2021/08/28 05:50:44;;;;;;;14.90;9.68;;;;;;;;;;4958109;28;20027;-65
2021/08/28 05:53:10;;;;;;;16.25;10.77;;;;;;;;;;4976583;28;20046;-66
2021/08/28 05:55:37;;;;;;;15.60;11.57;;;;;;;;;;4976163;28;20026;-70
2021/08/28 05:58:03;;;;;;;15.65;10.85;;;;;;;;;;4971698;28;20033;-71
2021/08/28 06:00:29;;;;;;;12.63;10.98;;;;;;;;;;4971526;28;20031;-68
2021/08/28 06:02:55;;;;;;;14.95;10.38;;;;;;;;;;4972296;28;20027;-71
2021/08/28 06:05:21;;;;;;;16.30;11.18;;;;;;;;;;4964592;28;20030;-65
2021/08/28 06:07:47;;;;;;;14.52;12.02;;;;;;;;;;4973446;28;20401;-70
2021/08/28 06:10:13;;;;;;;15.43;11.00;;;;;;;;;;4969995;28;20110;-68
2021/08/28 06:12:39;;;;;;;15.50;11.88;;;;;;;;;;4973185;28;20038;-73
2021/08/28 06:15:05;;;;;;;17.85;11.90;;;;;;;;;;4973416;28;20023;-69
2021/08/28 06:17:32;;;;;;;18.23;12.38;;;;;;;;;;4972761;28;20065;-75
2021/08/28 06:19:58;;;;;;;15.85;11.65;;;;;;;;;;4967477;28;20109;-75
2021/08/28 06:22:24;;;;;;;16.15;11.23;;;;;;;;;;4972841;28;20043;-75
2021/08/28 06:24:50;;;;;;;15.68;11.88;;;;;;;;;;4969033;28;20034;-76
2021/08/28 06:27:16;;;;;;;19.92;13.07;;;;;;;;;;4975388;28;20026;-69
2021/08/28 06:29:42;;;;;;;16.02;13.18;;;;;;;;;;4964646;28;20030;-73
2021/08/28 06:32:11;;;;;;;18.45;11.40;;;;;;;;;;4959290;28;20122;-73
2021/08/28 06:34:37;;;;;;;15.05;11.23;;;;;;;;;;4962672;28;20047;-66
2021/08/28 06:37:03;;;;;;;17.83;12.35;;;;;;;;;;4960074;28;20035;-66
2021/08/28 06:39:29;;;;;;;16.55;12.50;;;;;;;;;;4955257;28;20117;-69
2021/08/28 06:41:56;;;;;;;15.88;11.27;;;;;;;;;;4973611;28;20173;-64
2021/08/28 06:44:23;;;;;;;14.10;11.70;;;;;;;;;;4967522;28;20031;-64
2021/08/28 06:46:49;;;;;;;17.10;11.45;;;;;;;;;;4974665;28;20023;-68
2021/08/28 06:49:15;;;;;;;15.82;12.13;;;;;;;;;;4969793;28;20027;-67
2021/08/28 06:51:42;;;;;;;19.52;11.98;;;;;;;;;;4961998;28;20034;-72
2021/08/28 06:54:08;;;;;;;14.82;11.45;;;;;;;;;;4972433;28;20519;-74
2021/08/28 06:56:38;;;;;;;19.83;13.30;;;;;;;;;;4977155;28;20062;-77
2021/08/28 06:59:04;;;;;;;19.63;14.75;;;;;;;;;;4974443;28;20493;-68
2021/08/28 07:01:31;;;;;;;17.38;13.80;;;;;;;;;;4971282;28;20035;-75
2021/08/28 07:03:57;;;;;;;18.40;14.15;;;;;;;;;;4973111;28;20517;-71
2021/08/28 07:06:23;;;;;;;18.65;14.18;;;;;;;;;;4972814;28;20027;-71
2021/08/28 07:08:49;;;;;;;16.50;14.10;;;;;;;;;;4973962;28;20027;-67
2021/08/28 07:11:15;;;;;;;18.55;15.15;;;;;;;;;;4968526;28;20082;-68
2021/08/28 07:13:41;;;;;;;23.17;16.90;;;;;;;;;;4965379;28;20489;-72
2021/08/28 07:16:08;;;;;;;23.88;15.43;;;;;;;;;;4969452;28;20077;-71
2021/08/28 07:18:41;;;;;;;20.63;14.88;;;;;;;;;;4969575;28;20046;-70
2021/08/28 07:21:09;;;;;;;18.63;14.60;;;;;;;;;;4966637;28;20453;-66
2021/08/28 07:23:36;;;;;;;17.60;14.43;;;;;;;;;;4969468;28;20062;-71
2021/08/28 07:26:02;;;;;;;20.02;15.80;;;;;;;;;;4973681;28;20485;-71
2021/08/28 07:28:28;;;;;;;20.73;16.35;;;;;;;;;;4973721;28;20035;-63
2021/08/28 07:30:54;;;;;;;22.73;16.48;;;;;;;;;;4970168;28;20019;-70
2021/08/28 07:33:20;;;;;;;21.15;15.25;;;;;;;;;;4973085;28;20039;-64
2021/08/28 07:35:46;;;;;;;21.00;15.82;;;;;;;;;;4973908;28;20060;-70
2021/08/28 07:38:12;;;;;;;18.45;14.93;;;;;;;;;;4966684;28;20041;-64
2021/08/28 07:40:38;;;;;;;17.80;13.70;;;;;;;;;;4976991;28;20054;-69
2021/08/28 07:43:05;;;;;;;14.85;13.05;;;;;;;;;;4970163;28;20054;-70
2021/08/28 07:45:31;;;;;;;17.25;13.93;;;;;;;;;;4972956;28;20028;-69
2021/08/28 07:47:57;;;;;;;16.45;13.80;;;;;;;;;;4971182;28;20031;-66
2021/08/28 07:50:23;;;;;;;19.17;14.57;;;;;;;;;;4967180;28;20094;-70
2021/08/28 07:52:49;;;;;;;17.80;13.20;;;;;;;;;;4969782;28;20117;-70
2021/08/28 07:55:16;;;;;;;19.35;14.20;;;;;;;;;;4968232;28;20037;-67
2021/08/28 07:57:43;;;;;;;18.20;14.02;;;;;;;;;;4965182;28;20041;-68
2021/08/28 08:00:13;;;;;;;18.33;14.60;;;;;;;;;;4975388;28;20055;-76
2021/08/28 08:02:39;;;;;;;18.23;14.70;;;;;;;;;;4955516;28;20027;-75
2021/08/28 08:05:08;;;;;;;17.50;14.55;;;;;;;;;;4971395;28;20090;-75
2021/08/28 08:07:34;;;;;;;16.92;14.23;;;;;;;;;;4958738;28;20025;-65
2021/08/28 08:10:01;;;;;;;16.80;14.18;;;;;;;;;;4969875;28;20059;-74
2021/08/28 08:12:30;;;;;;;18.70;14.30;;;;;;;;;;4973869;28;20030;-72
2021/08/28 08:14:58;;;;;;;16.73;14.90;;;;;;;;;;4978090;28;20031;-76
2021/08/28 08:17:24;;;;;;;17.85;14.95;;;;;;;;;;4962066;28;20027;-68
2021/08/28 08:19:51;;;;;;;17.45;15.27;;;;;;;;;;4967592;28;20106;-65
2021/08/28 08:22:17;;;;;;;17.52;14.57;;;;;;;;;;4960415;28;20043;-63
2021/08/28 08:24:43;;;;;;;15.18;12.20;;;;;;;;;;4958507;28;20460;-69
2021/08/28 08:27:09;;;;;;;15.55;12.18;;;;;;;;;;4963432;28;20081;-71
2021/08/28 08:29:36;;;;;;;15.93;11.80;;;;;;;;;;4967186;28;20507;-70
2021/08/28 08:32:02;;;;;;;12.45;11.05;;;;;;;;;;4975754;28;20042;-69
2021/08/28 08:34:28;;;;;;;16.13;10.65;;;;;;;;;;4960991;28;20094;-72
2021/08/28 08:36:54;;;;;;;15.95;11.13;;;;;;;;;;4968267;28;20389;-67
2021/08/28 08:39:20;;;;;;;14.23;11.90;;;;;;;;;;4970618;28;20023;-77
2021/08/28 08:41:49;;;;;;;13.90;12.23;;;;;;;;;;4956564;28;20828;-74
2021/08/28 08:44:16;;;;;;;16.05;10.68;;;;;;;;;;4971968;28;20041;-70
2021/08/28 08:46:43;;;;;;;12.48;10.57;;;;;;;;;;4965236;28;20035;-73
2021/08/28 08:49:11;;;;;;;13.45;9.85;;;;;;;;;;4962145;28;20027;-73
2021/08/28 08:51:38;;;;;;;10.70;9.60;;;;;;;;;;4961472;28;20098;-70
2021/08/28 08:54:04;;;;;;;13.60;9.23;;;;;;;;;;4968180;28;20130;-67
2021/08/28 08:56:31;;;;;;;8.65;7.75;;;;;;;;;;4970053;28;20032;-69
2021/08/28 08:58:58;;;;;;;8.82;7.72;;;;;;;;;;4969189;28;20477;-71
2021/08/28 09:01:24;;;;;;;12.52;7.72;;;;;;;;;;4976165;28;20105;-74
2021/08/28 09:03:50;;;;;;;7.65;6.80;;;;;;;;;;4956709;28;20035;-66
2021/08/28 09:06:16;;;;;;;9.40;6.45;;;;;;;;;;4968767;28;20046;-66
2021/08/28 09:08:42;;;;;;;10.30;7.78;;;;;;;;;;4969009;28;20031;-68
2021/08/28 09:11:22;;;;;;;9.05;6.15;;;;;;;;;;4966420;28;20030;-69
2021/08/28 09:13:48;;;;;;;7.82;6.97;;;;;;;;;;4967978;28;20043;-70
2021/08/28 09:16:34;;;;;;;7.18;6.43;;;;;;;;;;4971760;28;20034;-67
2021/08/28 09:19:00;;;;;;;6.28;5.65;;;;;;;;;;4975080;28;20055;-72
2021/08/28 09:21:34;;;;;;;6.40;5.80;;;;;;;;;;4969972;28;20057;-73
2021/08/28 09:24:05;;;;;;;8.18;4.93;;;;;;;;;;4974872;28;20481;-68
2021/08/28 09:26:35;;;;;;;5.68;5.18;;;;;;;;;;4976178;28;20031;-72
2021/08/28 09:29:02;;;;;;;5.40;4.10;;;;;;;;;;4974980;28;20075;-71
2021/08/28 09:31:41;;;;;;;5.22;4.72;;;;;;;;;;4971177;28;20027;-65
2021/08/28 09:34:38;;;;;;;7.20;5.60;;;;;;;;;;4973662;28;20608;-70
2021/08/28 09:37:05;;;;;;;6.50;5.57;;;;;;;;;;4972810;28;20492;-74
2021/08/28 09:39:40;;;;;;;6.72;5.63;;;;;;;;;;4965801;28;20384;-65
2021/08/28 09:42:09;;;;;;;6.20;5.50;;;;;;;;;;4971647;28;20078;-74
2021/08/28 09:44:35;;;;;;;7.65;5.40;;;;;;;;;;4978504;28;20026;-71
2021/08/28 09:47:13;;;;;;;23.15;10.30;;;;;;;;;;4982582;28;20038;-74
2021/08/28 09:49:40;;;;;;;21.30;10.70;;;;;;;;;;4974002;28;20353;-73
2021/08/28 09:52:09;;;;;;;9.40;6.18;;;;;;;;;;4973625;28;20440;-73
2021/08/28 09:54:37;;;;;;;39.08;18.98;;;;;;;;;;4977532;28;20041;-63
2021/08/28 09:57:03;;;;;;;6.20;4.68;;;;;;;;;;4968775;28;20388;-72
2021/08/28 09:59:34;;;;;;;5.93;4.45;;;;;;;;;;4976100;28;20109;-72
2021/08/28 10:02:05;;;;;;;8.65;4.90;;;;;;;;;;4958810;28;20051;-76
2021/08/28 10:04:55;;;;;;;5.90;5.15;;;;;;;;;;4982430;28;20027;-75
2021/08/28 10:07:23;;;;;;;6.07;4.95;;;;;;;;;;4968611;28;20035;-74
2021/08/28 10:09:53;;;;;;;6.55;5.57;;;;;;;;;;4975849;28;20027;-73
2021/08/28 10:12:19;;;;;;;6.85;4.65;;;;;;;;;;4972951;28;20033;-64
2021/08/28 10:14:47;;;;;;;5.60;4.32;;;;;;;;;;4966993;28;20042;-68
2021/08/28 10:17:14;;;;;;;6.50;4.78;;;;;;;;;;4970552;28;20038;-71
2021/08/28 10:19:40;;;;;;;8.88;4.55;;;;;;;;;;4974770;28;20086;-70
2021/08/28 10:22:07;;;;;;;10.15;5.10;;;;;;;;;;4968760;28;20042;-72
2021/08/28 10:24:33;;;;;;;6.95;4.57;;;;;;;;;;4971629;28;20031;-73
2021/08/28 10:27:25;;;;;;;9.73;4.72;;;;;;;;;;4973988;28;20038;-74
2021/08/28 10:29:51;;;;;;;8.65;4.10;;;;;;;;;;4914331;29;20040;-70
2021/08/28 10:32:17;;;;;;;5.18;3.20;;;;;;;;;;4891517;29;20132;-74
2021/08/28 10:34:44;;;;;;;5.80;3.78;;;;;;;;;;4913782;29;20472;-73
2021/08/28 10:37:10;;;;;;;5.25;4.28;;;;;;;;;;4913056;29;20113;-74
2021/08/28 10:39:36;;;;;;;6.63;3.95;;;;;;;;;;4912187;29;20043;-72
2021/08/28 10:42:04;;;;;;;6.90;4.30;;;;;;;;;;4909521;29;20036;-71
2021/08/28 10:44:30;;;;;;;7.05;5.05;;;;;;;;;;4911782;29;20074;-69
2021/08/28 10:46:56;;;;;;;6.20;4.95;;;;;;;;;;4912975;29;20048;-72
2021/08/28 10:49:28;;;;;;;5.30;4.78;;;;;;;;;;4913262;29;20040;-72
2021/08/28 10:51:55;;;;;;;5.93;4.80;;;;;;;;;;4920338;29;20195;-77
2021/08/28 10:54:29;;;;;;;8.70;5.30;;;;;;;;;;4915952;29;20475;-73
2021/08/28 10:56:57;;;;;;;6.95;4.90;;;;;;;;;;4918629;29;20044;-72
2021/08/28 10:59:26;;;;;;;7.10;4.80;;;;;;;;;;4907678;29;20037;-70
2021/08/28 11:02:01;;;;;;;6.07;5.13;;;;;;;;;;4912453;29;20491;-67
2021/08/28 11:04:33;;;;;;;5.70;5.10;;;;;;;;;;4910880;29;20126;-69
2021/08/28 11:07:18;;;;;;;5.95;5.15;;;;;;;;;;4946120;28;20103;-71
2021/08/28 11:10:02;;;;;;;7.13;5.63;;;;;;;;;;4972254;28;20030;-74
2021/08/28 11:12:28;;;;;;;5.75;4.88;;;;;;;;;;4971809;28;20031;-65
2021/08/28 11:14:55;;;;;;;8.10;5.90;;;;;;;;;;4970880;28;20473;-68
2021/08/28 11:17:37;;;;;;;7.22;5.50;;;;;;;;;;4974496;28;20109;-69
2021/08/28 11:20:03;;;;;;;6.80;5.40;;;;;;;;;;4974196;28;20035;-68
2021/08/28 11:22:36;;;;;;;8.43;5.63;;;;;;;;;;4972852;28;20046;-63
2021/08/28 11:25:05;;;;;;;7.00;6.25;;;;;;;;;;4971428;28;20034;-65
2021/08/28 11:27:39;;;;;;;6.80;6.10;;;;;;;;;;4972522;28;20027;-66
2021/08/28 11:30:04;;;;;;;;;;;;;;;;;;4972571;28;20042;-68
2021/08/28 11:32:31;;;;;;;8.07;5.93;;;;;;;;;;4962381;28;19921;-65
2021/08/28 11:34:58;;;;;;;7.68;6.13;;;;;;;;;;4973630;28;20030;-66
2021/08/28 11:37:27;;;;;;;7.50;6.55;;;;;;;;;;4961166;28;20493;-67
2021/08/28 11:39:57;;;;;;;9.48;6.85;;;;;;;;;;4966906;28;20058;-66
2021/08/28 11:42:24;;;;;;;7.75;6.43;;;;;;;;;;4963010;28;20486;-64
2021/08/28 11:44:52;;;;;;;6.32;5.43;;;;;;;;;;4973457;28;20502;-66
2021/08/28 11:47:18;;;;;;;6.03;5.15;;;;;;;;;;4971031;28;20030;-63
2021/08/28 11:49:45;;;;;;;7.43;5.07;;;;;;;;;;4971581;28;20688;-69
2021/08/28 11:52:11;;;;;;;8.05;5.05;;;;;;;;;;4970619;28;20023;-71
2021/08/28 11:54:39;;;;;;;6.63;5.05;;;;;;;;;;4971562;28;20035;-69
2021/08/28 11:57:05;;;;;;;6.38;5.28;;;;;;;;;;4972850;28;20388;-71
2021/08/28 11:59:37;;;;;;;6.90;5.15;;;;;;;;;;4970380;28;20050;-70
2021/08/28 12:02:03;;;;;;;7.35;5.13;;;;;;;;;;4959565;28;20064;-67
2021/08/28 12:04:33;;;;;;;6.03;4.50;;;;;;;;;;4972557;28;20034;-65
2021/08/28 12:07:00;;;;;;;6.38;5.03;;;;;;;;;;4972860;28;20500;-68
2021/08/28 12:09:26;;;;;;;8.57;5.07;;;;;;;;;;4966971;28;20034;-70
2021/08/28 12:11:53;;;;;;;6.10;5.00;;;;;;;;;;4968497;28;20171;-67
2021/08/28 12:14:20;;;;;;;8.15;5.13;;;;;;;;;;4968434;28;20039;-69
2021/08/28 12:16:47;;;;;;;6.75;5.35;;;;;;;;;;4989931;28;20027;-69
2021/08/28 12:19:19;;;;;;;6.00;5.20;;;;;;;;;;4980783;28;20029;-72
2021/08/28 12:21:50;;;;;;;6.25;5.45;;;;;;;;;;4985080;28;20167;-71
2021/08/28 12:24:16;;;;;;;6.43;5.47;;;;;;;;;;4985340;28;20027;-64
2021/08/28 12:26:43;;;;;;;7.20;5.68;;;;;;;;;;4974008;28;20058;-68
2021/08/28 12:29:09;;;;;;;6.50;5.72;;;;;;;;;;4970016;28;20556;-69
2021/08/28 12:31:36;;;;;;;6.57;5.40;;;;;;;;;;4971413;28;20536;-67
2021/08/28 12:34:23;;;;;;;7.10;5.80;;;;;;;;;;4972225;28;20134;-70
2021/08/28 12:37:15;;;;;;;7.40;5.63;;;;;;;;;;4957145;28;20094;-70
2021/08/28 12:39:42;;;;;;;6.15;5.50;;;;;;;;;;4947006;28;20035;-70
2021/08/28 12:42:35;;;;;;;8.60;6.00;;;;;;;;;;4968429;28;20030;-70
2021/08/28 12:45:03;;;;;;;10.63;6.30;;;;;;;;;;4964929;28;20553;-74
2021/08/28 12:47:30;;;;;;;8.70;6.60;;;;;;;;;;4967582;28;20041;-69
2021/08/28 12:49:56;;;;;;;6.63;5.90;;;;;;;;;;4977978;28;20019;-69
2021/08/28 12:52:33;;;;;;;8.90;6.07;;;;;;;;;;4969434;28;20035;-75
2021/08/28 12:55:00;;;;;;;12.07;7.40;;;;;;;;;;4973557;28;20357;-64
2021/08/28 12:57:28;;;;;;;8.32;6.38;;;;;;;;;;4971461;28;20086;-69
2021/08/28 12:59:55;;;;;;;7.57;5.82;;;;;;;;;;4970598;28;20034;-67
2021/08/28 13:02:23;;;;;;;8.80;6.18;;;;;;;;;;4971264;28;20027;-72
2021/08/28 13:05:03;;;;;;;8.38;6.07;;;;;;;;;;4968851;28;20042;-77
2021/08/28 13:07:29;;;;;;;7.53;6.13;;;;;;;;;;4958288;28;20114;-62
2021/08/28 13:09:56;;;;;;;6.95;5.97;;;;;;;;;;4976156;28;20047;-74
2021/08/28 13:12:40;;;;;;;7.80;6.70;;;;;;;;;;4970526;28;20030;-65
2021/08/28 13:15:08;;;;;;;10.02;6.80;;;;;;;;;;4964091;28;20042;-65
2021/08/28 13:17:36;;;;;;;7.78;6.20;;;;;;;;;;4966142;28;20123;-65
2021/08/28 13:20:07;;;;;;;10.23;6.20;;;;;;;;;;4965347;28;20031;-67
2021/08/28 13:22:35;;;;;;;13.23;7.22;;;;;;;;;;4971933;28;20046;-68
2021/08/28 13:25:01;;;;;;;8.60;6.85;;;;;;;;;;4965942;28;20106;-66
2021/08/28 13:27:29;;;;;;;9.90;7.20;;;;;;;;;;4974971;28;20019;-68
2021/08/28 13:30:11;;;;;;;9.32;6.88;;;;;;;;;;4974132;28;20121;-64
2021/08/28 13:32:37;;;;;;;12.43;6.80;;;;;;;;;;4975485;28;20064;-68
2021/08/28 13:35:03;;;;;;;10.30;6.55;;;;;;;;;;4976183;28;20039;-65
2021/08/28 13:37:29;;;;;;;6.55;5.85;;;;;;;;;;4974438;28;20034;-62
2021/08/28 13:39:55;;;;;;;7.57;6.03;;;;;;;;;;4970947;28;20023;-66
2021/08/28 13:42:22;;;;;;;9.13;7.05;;;;;;;;;;4975092;28;20114;-67
2021/08/28 13:44:49;;;;;;;7.68;6.45;;;;;;;;;;4976595;28;20193;-63
2021/08/28 13:47:17;;;;;;;9.52;6.82;;;;;;;;;;4972977;28;20031;-66
2021/08/28 13:49:43;;;;;;;10.15;7.05;;;;;;;;;;4975760;28;20369;-70
2021/08/28 13:52:11;;;;;;;10.00;6.60;;;;;;;;;;4968095;28;20022;-69
2021/08/28 13:54:38;;;;;;;7.00;6.05;;;;;;;;;;4974581;28;20034;-68
2021/08/28 13:57:07;;;;;;;8.65;6.95;;;;;;;;;;4975718;28;20395;-69
2021/08/28 13:59:36;;;;;;;7.72;6.05;;;;;;;;;;4948612;28;20042;-62
2021/08/28 14:02:03;;;;;;;9.55;6.60;;;;;;;;;;4940827;28;20069;-66
2021/08/28 14:04:29;;;;;;;15.02;9.95;;;;;;;;;;4957015;28;20404;-61
2021/08/28 14:06:55;;;;;;;12.18;9.88;;;;;;;;;;4975499;28;20082;-68
2021/08/28 14:09:21;;;;;;;12.05;7.95;;;;;;;;;;4975397;28;20026;-61
2021/08/28 14:11:47;;;;;;;9.60;7.28;;;;;;;;;;4975477;28;20148;-66
2021/08/28 14:14:13;;;;;;;10.57;7.78;;;;;;;;;;4975195;28;20485;-69
2021/08/28 14:16:39;;;;;;;11.32;7.88;;;;;;;;;;4970351;28;20485;-68
2021/08/28 14:19:05;;;;;;;12.07;7.60;;;;;;;;;;4974504;28;20392;-68
2021/08/28 14:21:31;;;;;;;8.95;6.03;;;;;;;;;;4975096;28;20457;-69
2021/08/28 14:23:57;;;;;;;8.88;6.57;;;;;;;;;;4974077;28;20054;-64
2021/08/28 14:26:23;;;;;;;8.35;6.65;;;;;;;;;;4974650;28;20037;-62
2021/08/28 14:28:50;;;;;;;10.52;6.78;;;;;;;;;;4972631;28;20086;-69
2021/08/28 14:31:16;;;;;;;7.95;5.88;;;;;;;;;;4971887;28;20094;-67
2021/08/28 14:33:42;;;;;;;9.77;6.75;;;;;;;;;;4973496;28;20062;-68
2021/08/28 14:36:10;;;;;;;8.98;7.13;;;;;;;;;;4971051;28;20019;-68
2021/08/28 14:38:36;;;;;;;8.35;7.10;;;;;;;;;;4971414;28;20026;-62